Elma, New York
Current Conditions -  °F | °C
As of 3:54 AM on Thursday 27 Nov 2014 (Local Time) from KBUF Reporting Station
Light Snow Light Snow  
Wind Chill: 23°   Ceiling: 3300
Heat Index: 29°   Visibility: 9mi
Dew Point: 22°   Wind: 6mph
Humidity: 75%   Direction: 50°NE
Pressure: 30.04"   Gusts: NA
Location:  42.85°N, 78.64°W
Report Text: KBUF 270854Z 05005KT 9SM -SN OVC033 M02/M06 A3004 RMK AO2 SLP182 P0000 60000 T10171056 50003
Loading
Personal Weather Stations






























Interactive Weather Map New forecast layout! Learn more

10-Day Weather Forecast

Advertisements
Track Severe Weather on mobile